createdAt,value
2023-05-18T00:00:55.472Z,3.55
2023-05-18T00:03:22.260Z,3.60
2023-05-18T00:05:49.283Z,3.92
2023-05-18T00:08:16.197Z,3.58
2023-05-18T00:10:42.914Z,3.65
2023-05-18T00:13:09.349Z,3.17
2023-05-18T00:15:35.830Z,3.15
2023-05-18T00:18:02.951Z,3.30
2023-05-18T00:20:30.058Z,3.22
2023-05-18T00:22:56.691Z,3.78
2023-05-18T00:25:23.210Z,3.47
2023-05-18T00:27:52.131Z,3.83
2023-05-18T00:30:18.976Z,3.33
2023-05-18T00:32:45.968Z,3.78
2023-05-18T00:35:12.763Z,3.58
2023-05-18T00:37:39.215Z,3.25
2023-05-18T00:40:06.697Z,3.53
2023-05-18T00:42:33.176Z,3.58
2023-05-18T00:44:59.527Z,4.05
2023-05-18T00:47:26.100Z,3.13
2023-05-18T00:49:52.558Z,3.75
2023-05-18T00:52:19.663Z,4.57
2023-05-18T00:54:46.320Z,4.15
2023-05-18T00:57:12.770Z,4.47
2023-05-18T00:59:40.076Z,4.10
2023-05-18T01:02:06.889Z,3.88
2023-05-18T01:04:34.048Z,4.75
2023-05-18T01:07:06.850Z,4.32
2023-05-18T01:09:34.598Z,4.68
2023-05-18T01:12:21.358Z,4.90
2023-05-18T01:15:28.857Z,3.92
2023-05-18T01:18:05.053Z,4.43
2023-05-18T01:20:39.763Z,4.68
2023-05-18T01:23:45.032Z,4.88
2023-05-18T01:26:15.381Z,4.20
2023-05-18T01:28:46.291Z,4.75
2023-05-18T01:31:15.142Z,4.68
2023-05-18T01:33:42.153Z,4.20
2023-05-18T01:36:09.186Z,4.20
2023-05-18T01:38:36.473Z,4.35
2023-05-18T01:41:11.983Z,4.63
2023-05-18T01:43:46.803Z,4.30
2023-05-18T01:46:28.302Z,4.40
2023-05-18T01:49:00.149Z,4.38
2023-05-18T01:51:32.973Z,4.65
2023-05-18T01:54:04.761Z,4.57
2023-05-18T01:56:33.440Z,4.47
2023-05-18T01:59:00.583Z,4.38
2023-05-18T02:01:27.185Z,4.93
2023-05-18T02:03:54.057Z,4.72
2023-05-18T02:06:20.925Z,4.47
2023-05-18T02:08:47.745Z,4.78
2023-05-18T02:11:14.462Z,5.13
2023-05-18T02:13:41.297Z,4.28
2023-05-18T02:16:08.284Z,5.10
2023-05-18T02:18:36.499Z,4.63
2023-05-18T02:21:04.047Z,4.90
2023-05-18T02:23:31.228Z,4.72
2023-05-18T02:25:58.147Z,4.60
2023-05-18T02:28:24.845Z,4.50
2023-05-18T02:30:51.500Z,4.30
2023-05-18T02:33:19.641Z,4.95
2023-05-18T02:35:46.668Z,5.00
2023-05-18T02:38:13.173Z,4.40
2023-05-18T02:40:39.802Z,4.45
2023-05-18T02:43:06.161Z,4.80
2023-05-18T02:45:32.876Z,5.05
2023-05-18T02:47:59.509Z,4.47
2023-05-18T02:50:26.017Z,4.60
2023-05-18T02:52:52.527Z,4.88
2023-05-18T02:55:19.187Z,4.47
2023-05-18T02:57:47.068Z,3.95
2023-05-18T03:00:16.649Z,4.65
2023-05-18T03:02:44.299Z,4.65
2023-05-18T03:05:11.065Z,4.70
2023-05-18T03:07:37.762Z,4.85
2023-05-18T03:10:04.627Z,4.75
2023-05-18T03:12:31.129Z,4.35
2023-05-18T03:14:57.678Z,4.38
2023-05-18T03:17:24.406Z,5.07
2023-05-18T03:19:51.587Z,5.00
2023-05-18T03:22:17.965Z,5.07
2023-05-18T03:24:44.728Z,5.30
2023-05-18T03:27:13.110Z,5.47
2023-05-18T03:29:39.801Z,5.00
2023-05-18T03:32:06.689Z,4.40
2023-05-18T03:34:33.148Z,4.90
2023-05-18T03:37:00.099Z,5.32
2023-05-18T03:39:26.543Z,4.90
2023-05-18T03:41:53.019Z,4.78
2023-05-18T03:44:19.456Z,4.50
2023-05-18T03:46:46.185Z,5.18
2023-05-18T03:49:12.972Z,5.15
2023-05-18T03:51:40.740Z,5.30
2023-05-18T03:54:07.315Z,4.65
2023-05-18T03:56:33.935Z,4.80
2023-05-18T03:59:00.598Z,4.75
2023-05-18T04:01:30.570Z,4.93
2023-05-18T04:03:57.924Z,4.80
2023-05-18T04:06:26.043Z,5.80
2023-05-18T04:08:53.677Z,5.18
2023-05-18T04:11:21.465Z,5.13
2023-05-18T04:13:48.083Z,4.95
2023-05-18T04:16:14.759Z,5.82
2023-05-18T04:18:41.648Z,4.97
2023-05-18T04:21:08.977Z,4.35
2023-05-18T04:23:39.614Z,5.13
2023-05-18T04:26:06.806Z,6.15
2023-05-18T04:28:33.538Z,5.18
2023-05-18T04:31:01.768Z,5.72
2023-05-18T04:33:29.463Z,4.82
2023-05-18T04:35:55.886Z,5.32
2023-05-18T04:38:25.250Z,5.43
2023-05-18T04:40:52.035Z,5.70
2023-05-18T04:43:18.602Z,5.50
2023-05-18T04:45:50.668Z,4.90
2023-05-18T04:48:20.125Z,5.32
2023-05-18T04:50:46.997Z,5.28
2023-05-18T04:53:13.793Z,5.18
2023-05-18T04:55:40.260Z,5.57
2023-05-18T04:58:06.617Z,5.30
2023-05-18T05:00:33.121Z,5.80
2023-05-18T05:02:59.901Z,5.00
2023-05-18T05:05:27.082Z,5.72
2023-05-18T05:07:54.426Z,5.32
2023-05-18T05:10:22.517Z,5.40
2023-05-18T05:12:51.978Z,5.50
2023-05-18T05:15:19.375Z,5.72
2023-05-18T05:17:50.131Z,5.57
2023-05-18T05:20:17.915Z,5.40
2023-05-18T05:22:44.668Z,5.83
2023-05-18T05:25:11.634Z,5.53
2023-05-18T05:27:38.204Z,5.68
2023-05-18T05:30:05.966Z,4.70
2023-05-18T05:32:33.828Z,5.28
2023-05-18T05:35:00.347Z,5.22
2023-05-18T05:37:26.785Z,5.47
2023-05-18T05:39:53.417Z,5.15
2023-05-18T05:42:19.816Z,6.07
2023-05-18T05:44:46.324Z,4.90
2023-05-18T05:47:12.888Z,4.75
2023-05-18T05:49:39.582Z,4.95
2023-05-18T05:52:06.405Z,4.90
2023-05-18T05:54:33.059Z,4.07
2023-05-18T05:56:59.735Z,4.60
2023-05-18T05:59:26.546Z,4.25
2023-05-18T06:01:53.302Z,4.30
2023-05-18T06:04:20.417Z,4.70
2023-05-18T06:06:49.688Z,4.30
2023-05-18T06:09:16.357Z,4.72
2023-05-18T06:11:43.344Z,4.63
2023-05-18T06:14:09.765Z,3.67
2023-05-18T06:16:36.480Z,3.78
2023-05-18T06:19:03.318Z,4.53
2023-05-18T06:21:29.874Z,3.45
2023-05-18T06:23:57.029Z,3.33
2023-05-18T06:26:23.530Z,3.17
2023-05-18T06:28:50.067Z,3.55
2023-05-18T06:31:19.115Z,3.47
2023-05-18T06:33:45.908Z,4.63
2023-05-18T06:36:12.326Z,4.30
2023-05-18T06:38:38.744Z,3.30
2023-05-18T06:41:05.275Z,3.38
2023-05-18T06:43:32.936Z,3.50
2023-05-18T06:45:59.724Z,4.27
2023-05-18T06:48:28.475Z,3.60
2023-05-18T06:50:55.895Z,4.30
2023-05-18T06:53:23.392Z,3.78
2023-05-18T06:55:50.338Z,3.47
2023-05-18T06:58:18.367Z,3.88
2023-05-18T07:00:45.611Z,3.00
2023-05-18T07:03:12.265Z,3.15
2023-05-18T07:05:39.731Z,5.07
2023-05-18T07:08:07.565Z,3.58
2023-05-18T07:10:36.073Z,4.45
2023-05-18T07:13:02.754Z,2.90
2023-05-18T07:15:29.681Z,3.50
2023-05-18T07:17:56.988Z,3.08
2023-05-18T07:20:26.443Z,3.28
2023-05-18T07:22:55.130Z,3.45
2023-05-18T07:25:22.547Z,3.38
2023-05-18T07:27:52.279Z,3.33
2023-05-18T07:30:18.822Z,3.10
2023-05-18T07:32:45.872Z,3.28
2023-05-18T07:35:13.671Z,3.53
2023-05-18T07:37:40.364Z,3.33
2023-05-18T07:40:10.156Z,3.28
2023-05-18T07:42:37.746Z,2.97
2023-05-18T07:45:04.508Z,3.58
2023-05-18T07:47:30.959Z,2.58
2023-05-18T07:50:00.144Z,3.28
2023-05-18T07:52:26.732Z,2.72
2023-05-18T07:54:55.173Z,3.15
2023-05-18T07:57:21.906Z,3.35
2023-05-18T07:59:48.423Z,3.63
2023-05-18T08:02:17.009Z,3.15
2023-05-18T08:07:10.859Z,2.65
2023-05-18T08:09:37.328Z,3.28
2023-05-18T08:12:05.926Z,2.85
2023-05-18T08:16:58.816Z,2.67
2023-05-18T08:19:27.514Z,3.00
2023-05-18T08:21:55.549Z,3.00
2023-05-18T08:24:21.967Z,3.53
2023-05-18T08:26:50.111Z,3.08
2023-05-18T08:29:16.525Z,2.67
2023-05-18T08:31:43.267Z,3.00
2023-05-18T08:34:09.897Z,3.75
2023-05-18T08:36:37.158Z,3.35
2023-05-18T08:39:05.516Z,2.97
2023-05-18T08:41:40.329Z,2.67
2023-05-18T08:44:16.957Z,4.13
2023-05-18T08:46:48.469Z,3.33
2023-05-18T08:49:18.679Z,3.20
2023-05-18T08:51:51.391Z,2.88
2023-05-18T08:54:21.442Z,3.10
2023-05-18T08:56:56.433Z,3.13
2023-05-18T08:59:33.768Z,2.90
2023-05-18T09:02:00.412Z,3.17
2023-05-18T09:04:28.704Z,2.92
2023-05-18T09:06:56.516Z,3.20
2023-05-18T09:09:25.517Z,3.63
2023-05-18T09:11:52.245Z,3.58
2023-05-18T09:14:19.019Z,3.80
2023-05-18T09:16:45.592Z,3.08
2023-05-18T09:19:13.457Z,3.25
2023-05-18T09:21:40.211Z,3.10
2023-05-18T09:24:06.996Z,3.45
2023-05-18T09:26:33.436Z,3.38
2023-05-18T09:29:02.370Z,3.17
2023-05-18T09:31:30.975Z,3.20
2023-05-18T09:34:04.005Z,3.63
2023-05-18T09:36:32.548Z,3.28
2023-05-18T09:38:59.029Z,2.90
2023-05-18T09:41:28.308Z,3.65
2023-05-18T09:43:54.991Z,3.45
2023-05-18T09:46:22.131Z,3.10
2023-05-18T09:48:54.141Z,3.70
2023-05-18T09:51:25.805Z,4.22
2023-05-18T09:53:59.194Z,4.43
2023-05-18T09:56:27.213Z,3.70
2023-05-18T09:58:54.223Z,3.15
2023-05-18T10:01:20.787Z,3.90
2023-05-18T10:03:48.498Z,3.10
2023-05-18T10:06:20.240Z,3.72
2023-05-18T10:08:46.913Z,3.88
2023-05-18T10:11:17.865Z,4.10
2023-05-18T10:13:48.059Z,3.88
2023-05-18T10:16:16.880Z,4.65
2023-05-18T10:18:45.707Z,4.13
2023-05-18T10:21:14.403Z,2.83
2023-05-18T10:23:42.568Z,3.53
2023-05-18T10:26:10.282Z,3.15
2023-05-18T10:28:48.486Z,3.78
2023-05-18T10:31:30.241Z,3.45
2023-05-18T10:34:00.191Z,3.88
2023-05-18T10:36:30.272Z,3.63
2023-05-18T10:38:59.897Z,3.85
2023-05-18T10:41:27.688Z,4.28
2023-05-18T10:43:55.061Z,3.45
2023-05-18T10:46:27.131Z,3.92
2023-05-18T10:48:54.363Z,3.10
2023-05-18T10:51:21.427Z,3.20
2023-05-18T10:53:48.553Z,3.20
2023-05-18T10:56:18.241Z,3.20
2023-05-18T10:58:45.780Z,3.22
2023-05-18T11:01:13.712Z,3.50
2023-05-18T11:03:42.014Z,3.80
2023-05-18T11:11:13.070Z,3.78
2023-05-18T11:13:51.373Z,3.90
2023-05-18T11:16:19.386Z,3.60
2023-05-18T11:18:52.792Z,3.80
2023-05-18T11:21:50.365Z,3.53
2023-05-18T11:24:31.124Z,3.95
2023-05-18T11:27:07.622Z,3.90
2023-05-18T11:29:36.162Z,3.10
2023-05-18T11:34:45.449Z,2.88
2023-05-18T11:37:38.295Z,3.08
2023-05-18T11:40:15.296Z,3.55
2023-05-18T11:42:41.937Z,3.42
2023-05-18T11:45:09.557Z,2.65
2023-05-18T11:47:37.017Z,2.72
2023-05-18T11:50:07.021Z,3.38
2023-05-18T11:52:33.694Z,3.15
2023-05-18T11:55:01.375Z,2.95
2023-05-18T11:57:33.729Z,3.43
2023-05-18T12:00:02.904Z,2.85
2023-05-18T12:02:33.031Z,3.13
2023-05-18T12:05:01.293Z,2.80
2023-05-18T12:07:30.230Z,3.60
2023-05-18T12:10:03.255Z,3.10
2023-05-18T12:12:30.543Z,3.53
2023-05-18T12:14:59.271Z,3.33
2023-05-18T12:17:40.564Z,3.50
2023-05-18T12:20:08.721Z,3.03
2023-05-18T12:22:35.773Z,2.92
2023-05-18T12:25:02.432Z,2.95
2023-05-18T12:27:29.462Z,3.03
2023-05-18T12:29:55.938Z,2.97
2023-05-18T12:32:23.834Z,3.83
2023-05-18T12:34:51.437Z,2.92
2023-05-18T12:37:19.193Z,3.17
2023-05-18T12:39:52.341Z,2.97
2023-05-18T12:42:18.870Z,2.88
2023-05-18T12:44:46.026Z,2.45
2023-05-18T12:47:13.209Z,2.50
2023-05-18T12:49:41.722Z,2.50
2023-05-18T12:52:13.048Z,2.60
2023-05-18T12:55:03.094Z,3.10
2023-05-18T12:57:31.339Z,3.83
2023-05-18T12:59:58.161Z,3.10
2023-05-18T13:02:34.107Z,2.65
2023-05-18T13:05:06.451Z,2.58
2023-05-18T13:07:35.927Z,3.03
2023-05-18T13:10:10.463Z,3.60
2023-05-18T13:12:42.923Z,3.50
2023-05-18T13:15:18.250Z,2.97
2023-05-18T13:18:01.596Z,3.10
2023-05-18T13:20:36.591Z,2.58
2023-05-18T13:23:10.400Z,2.67
2023-05-18T13:25:37.367Z,2.53
2023-05-18T13:28:05.546Z,2.55
2023-05-18T13:30:32.910Z,2.40
2023-05-18T13:33:00.758Z,2.50
2023-05-18T13:35:27.293Z,2.60
2023-05-18T13:37:54.049Z,2.33
2023-05-18T13:40:22.152Z,2.60
2023-05-18T13:42:48.939Z,3.08
2023-05-18T13:45:16.378Z,2.58
2023-05-18T13:47:47.743Z,3.30
2023-05-18T13:50:14.332Z,2.75
2023-05-18T13:52:41.011Z,2.25
2023-05-18T13:55:09.956Z,2.47
2023-05-18T13:57:37.365Z,2.60
2023-05-18T14:00:13.542Z,2.22
2023-05-18T14:02:41.869Z,2.08
2023-05-18T14:07:41.181Z,2.33
2023-05-18T14:10:09.762Z,2.15
2023-05-18T14:15:03.795Z,2.97
2023-05-18T14:17:33.285Z,2.72
2023-05-18T14:20:00.277Z,2.67
2023-05-18T14:22:27.409Z,2.40
2023-05-18T14:24:56.536Z,2.53
2023-05-18T14:27:23.081Z,2.00
2023-05-18T14:29:50.599Z,2.70
2023-05-18T14:32:17.487Z,2.75
2023-05-18T14:34:43.912Z,2.50
2023-05-18T14:37:10.340Z,2.40
2023-05-18T14:39:37.739Z,2.45
2023-05-18T14:42:04.688Z,2.88
2023-05-18T14:44:31.166Z,2.70
2023-05-18T14:46:57.708Z,2.67
2023-05-18T14:49:24.252Z,2.33
2023-05-18T14:51:50.675Z,3.63
2023-05-18T14:54:18.989Z,2.78
2023-05-18T14:56:45.620Z,2.47
2023-05-18T14:59:12.089Z,2.97
2023-05-18T15:01:39.607Z,2.75
2023-05-18T15:04:06.302Z,2.58
2023-05-18T15:06:33.677Z,2.67
2023-05-18T15:09:02.051Z,2.45
2023-05-18T15:11:28.469Z,2.22
2023-05-18T15:13:54.894Z,2.60
2023-05-18T15:16:21.558Z,2.20
2023-05-18T15:18:48.035Z,3.22
2023-05-18T15:21:14.660Z,2.65
2023-05-18T15:23:41.120Z,2.70
2023-05-18T15:26:09.237Z,2.50
2023-05-18T15:28:36.415Z,3.10
2023-05-18T15:31:02.919Z,2.85
2023-05-18T15:33:29.364Z,2.72
2023-05-18T15:35:57.112Z,2.65
2023-05-18T15:38:23.584Z,2.53
2023-05-18T15:40:50.763Z,3.30
2023-05-18T15:43:17.594Z,2.80
2023-05-18T15:45:44.638Z,2.78
2023-05-18T15:48:11.543Z,2.92
2023-05-18T15:50:38.012Z,2.92
2023-05-18T15:53:04.721Z,2.72
2023-05-18T15:55:33.295Z,2.90
2023-05-18T16:00:26.605Z,2.65
2023-05-18T16:02:53.393Z,2.60
2023-05-18T16:05:19.982Z,2.72
2023-05-18T16:07:46.795Z,2.97
2023-05-18T16:10:14.390Z,2.90
2023-05-18T16:12:41.166Z,2.92
2023-05-18T16:15:08.028Z,2.80
2023-05-18T16:17:34.743Z,2.58
2023-05-18T16:20:03.970Z,2.35
2023-05-18T16:22:33.475Z,2.58
2023-05-18T16:24:59.862Z,2.65
2023-05-18T16:27:26.631Z,2.58
2023-05-18T16:29:53.095Z,2.63
2023-05-18T16:32:20.261Z,2.45
2023-05-18T16:34:46.644Z,2.55
2023-05-18T16:37:13.130Z,2.70
2023-05-18T16:39:39.806Z,2.80
2023-05-18T16:42:08.087Z,2.70
2023-05-18T16:44:36.318Z,2.63
2023-05-18T16:47:03.004Z,2.90
2023-05-18T16:49:29.491Z,2.78
2023-05-18T16:51:57.023Z,2.72
2023-05-18T16:54:23.461Z,2.83
2023-05-18T16:56:49.917Z,2.65
2023-05-18T16:59:17.015Z,2.80
2023-05-18T17:01:43.538Z,3.13
2023-05-18T17:04:10.394Z,2.45
2023-05-18T17:06:37.828Z,3.05
2023-05-18T17:09:06.468Z,2.55
2023-05-18T17:11:33.477Z,2.80
2023-05-18T17:14:01.422Z,2.72
2023-05-18T17:16:28.421Z,2.67
2023-05-18T17:18:57.855Z,2.65
2023-05-18T17:21:25.108Z,2.83
2023-05-18T17:23:51.477Z,3.10
2023-05-18T17:26:17.965Z,2.72
2023-05-18T17:28:44.406Z,2.80
2023-05-18T17:31:11.683Z,2.80
2023-05-18T17:33:38.863Z,2.80
2023-05-18T17:36:05.584Z,2.25
2023-05-18T17:38:33.176Z,3.30
2023-05-18T17:40:59.591Z,2.60
2023-05-18T17:43:26.008Z,2.20
2023-05-18T17:45:52.563Z,2.58
2023-05-18T17:48:20.239Z,2.17
2023-05-18T17:50:47.716Z,2.70
2023-05-18T17:53:14.453Z,2.05
2023-05-18T17:55:42.236Z,2.42
2023-05-18T17:58:10.079Z,3.67
2023-05-18T18:00:41.780Z,2.92
2023-05-18T18:03:08.537Z,2.58
2023-05-18T18:05:36.704Z,2.63
2023-05-18T18:08:03.368Z,2.63
2023-05-18T18:10:32.829Z,2.67
2023-05-18T18:12:59.526Z,3.58
2023-05-18T18:15:27.704Z,2.60
2023-05-18T18:17:55.169Z,4.88
2023-05-18T18:20:22.054Z,2.65
2023-05-18T18:22:48.739Z,3.00
2023-05-18T18:25:15.260Z,2.80
2023-05-18T18:27:41.943Z,2.75
2023-05-18T18:30:09.081Z,2.78
2023-05-18T18:32:35.805Z,2.78
2023-05-18T18:35:03.623Z,2.70
2023-05-18T18:37:30.128Z,3.15
2023-05-18T18:39:56.553Z,2.70
2023-05-18T18:42:23.291Z,3.22
2023-05-18T18:44:52.788Z,3.22
2023-05-18T18:47:19.343Z,2.78
2023-05-18T18:49:45.808Z,2.70
2023-05-18T18:52:13.863Z,2.80
2023-05-18T18:54:41.340Z,3.00
2023-05-18T18:57:08.366Z,2.50
2023-05-18T18:59:35.445Z,2.63
2023-05-18T19:02:02.245Z,2.72
2023-05-18T19:04:28.820Z,2.83
2023-05-18T19:06:56.191Z,2.97
2023-05-18T19:09:22.844Z,2.20
2023-05-18T19:11:50.274Z,3.28
2023-05-18T19:14:17.469Z,3.28
2023-05-18T19:16:43.939Z,2.42
2023-05-18T19:19:11.767Z,2.85
2023-05-18T19:21:38.560Z,2.90
2023-05-18T19:24:07.450Z,3.03
2023-05-18T19:26:34.554Z,2.50
2023-05-18T19:29:01.129Z,3.17
2023-05-18T19:31:28.574Z,3.33
2023-05-18T19:33:55.269Z,3.30
2023-05-18T19:36:21.933Z,3.83
2023-05-18T19:38:51.268Z,3.80
2023-05-18T19:41:17.690Z,3.03
2023-05-18T19:43:44.418Z,3.15
2023-05-18T19:46:11.443Z,3.33
2023-05-18T19:48:37.886Z,3.50
2023-05-18T19:51:04.374Z,3.42
2023-05-18T19:53:30.800Z,4.00
2023-05-18T19:55:57.224Z,3.40
2023-05-18T19:58:23.831Z,3.63
2023-05-18T20:00:52.641Z,3.47
2023-05-18T20:03:20.743Z,3.40
2023-05-18T20:05:48.026Z,3.70
2023-05-18T20:08:14.830Z,3.15
2023-05-18T20:10:41.235Z,3.95
2023-05-18T20:13:07.872Z,3.33
2023-05-18T20:15:36.707Z,3.20
2023-05-18T20:18:06.647Z,3.65
2023-05-18T20:20:36.336Z,3.92
2023-05-18T20:23:03.579Z,3.00
2023-05-18T20:25:34.870Z,3.28
2023-05-18T20:28:03.154Z,3.28
2023-05-18T20:30:30.080Z,3.70
2023-05-18T20:32:58.907Z,3.95
2023-05-18T20:37:59.475Z,3.72
2023-05-18T20:40:28.007Z,3.50
2023-05-18T20:45:22.757Z,3.58
2023-05-18T20:47:53.586Z,2.97
2023-05-18T20:50:23.136Z,3.00
2023-05-18T20:52:50.707Z,3.60
2023-05-18T20:55:18.402Z,3.50
2023-05-18T20:57:46.369Z,3.80
2023-05-18T21:00:13.518Z,3.72
2023-05-18T21:02:44.989Z,3.88
2023-05-18T21:05:16.170Z,4.10
2023-05-18T21:07:43.944Z,4.05
2023-05-18T21:10:11.921Z,4.47
2023-05-18T21:12:38.588Z,5.22
2023-05-18T21:15:05.488Z,5.35
2023-05-18T21:17:32.172Z,6.13
2023-05-18T21:19:59.989Z,5.97
2023-05-18T21:22:26.407Z,7.68
2023-05-18T21:24:52.876Z,5.90
2023-05-18T21:27:19.284Z,5.03
2023-05-18T21:29:45.937Z,5.15
2023-05-18T21:32:12.796Z,4.35
2023-05-18T21:34:41.147Z,4.32
2023-05-18T21:37:09.399Z,4.38
2023-05-18T21:39:35.976Z,4.32
2023-05-18T21:42:03.422Z,3.97
2023-05-18T21:44:30.060Z,3.95
2023-05-18T21:46:57.892Z,3.63
2023-05-18T21:49:25.021Z,3.60
2023-05-18T21:51:51.913Z,3.17
2023-05-18T21:54:18.265Z,3.25
2023-05-18T21:56:44.854Z,3.47
2023-05-18T21:59:11.304Z,3.75
2023-05-18T22:01:37.916Z,4.40
2023-05-18T22:04:04.736Z,3.28
2023-05-18T22:06:31.205Z,3.40
2023-05-18T22:08:57.650Z,3.47
2023-05-18T22:11:24.461Z,3.03
2023-05-18T22:13:51.058Z,3.45
2023-05-18T22:16:17.496Z,3.85
2023-05-18T22:18:44.128Z,2.97
2023-05-18T22:21:10.719Z,3.05
2023-05-18T22:23:38.752Z,3.60
2023-05-18T22:26:05.360Z,3.83
2023-05-18T22:28:31.779Z,3.90
2023-05-18T22:30:58.141Z,3.97
2023-05-18T22:33:24.971Z,3.30
2023-05-18T22:35:51.369Z,3.13
2023-05-18T22:38:17.942Z,3.22
2023-05-18T22:40:45.414Z,3.00
2023-05-18T22:43:12.005Z,4.38
2023-05-18T22:45:38.394Z,3.13
2023-05-18T22:48:05.116Z,3.40
2023-05-18T22:50:31.981Z,3.15
2023-05-18T22:52:58.708Z,3.40
2023-05-18T22:55:25.144Z,3.10
2023-05-18T22:57:51.779Z,2.97
2023-05-18T23:00:18.377Z,3.03
2023-05-18T23:02:44.843Z,3.20
2023-05-18T23:05:11.868Z,3.67
2023-05-18T23:07:41.691Z,3.70
2023-05-18T23:10:13.586Z,3.25
2023-05-18T23:12:40.314Z,3.28
2023-05-18T23:15:07.284Z,3.00
2023-05-18T23:17:33.978Z,3.30
2023-05-18T23:20:08.254Z,3.85
2023-05-18T23:22:34.935Z,3.17
2023-05-18T23:25:02.251Z,2.75
2023-05-18T23:27:28.994Z,4.40
2023-05-18T23:29:56.359Z,3.33
2023-05-18T23:32:23.491Z,3.22
2023-05-18T23:34:52.841Z,3.00
2023-05-18T23:37:20.923Z,4.05
2023-05-18T23:39:51.649Z,3.47
2023-05-18T23:42:21.425Z,3.53
2023-05-18T23:44:48.644Z,3.35
2023-05-18T23:47:16.506Z,3.58
2023-05-18T23:49:44.169Z,3.65
2023-05-18T23:52:11.686Z,3.63
2023-05-18T23:54:38.580Z,3.13
2023-05-18T23:57:05.703Z,4.45
2023-05-18T23:59:32.647Z,3.15
